Airfield :
LOGIN :

Register | Disclaimer

   EN    FR    IT 

 










Legend :    VFR   Marginal VFR   IFR   Intensive IFR   Very Intensive IFR
Visi :
Ceiling :
>= 8 km
>= 3000ft
5 to 8 km
1000 to 3000 ft
1500m to 5 km
500 to 1000 ft
800 to 1500m
200 to 500 ft
< 800m
< 200 ft
Symbols :   Thunderstorms  Fog  Heavy snow  Heavy precipitations  Wind > 20 kt
SIGMETs :     Misc.  Thunderstorms  Icing  Turbulence  Mountain Waves  Volcanic Ashes






- Airport Elevation : 355 ft
- IATA code : VBS


LIPO - Montichiari - Brescia

CURRENT METAR :
  • 021150Z AUTO VRB02KT 9999 FEW032/// BKN059/// 08/05 Q1018

EXPIRED METARs :
  • 021120Z AUTO 16003KT 120V200 9999 BKN060/// 08/04 Q1018
  • 021050Z AUTO VRB02KT 9999 FEW041/// BKN067/// 08/04 Q1019
  • 021020Z AUTO 23003KT 190V270 9999 FEW037/// BKN068/// 08/05 Q1019
  • 020950Z AUTO 25004KT 9999 BKN067/// 07/05 Q1019
  • 020920Z AUTO 25004KT 9999 FEW033/// SCT043/// BKN059/// 07/05 Q1019

TAF TAF LIPO
Valid from the 02 at 12:00 until the 03 at 12:00 UTC


021100Z 0212/0312 VRB05KT 8000 BKN060
BECMG 0214/0216 4000 DZ BR BKN014
BECMG 0306/0308 3000 RA BR



MET'MAP, your aeronautical weather chart ! - Copyright ORBIFLY December 2007 - Disclaimer

ORBIFLY MET'MAP TEAM :

Programming & Development : Alexandra Zaïnal
Original concept : Baudouin d'Aumeries
Technical & hardware support : Manuel Goepfert
Assistance : Marc-Olivier Méhu




SOURCES & CREDITS :

   NOAA